createdAt,value
2018-09-09T00:00:55.602Z,5.50
2018-09-09T00:01:55.623Z,5.70
2018-09-09T00:02:55.638Z,5.30
2018-09-09T00:03:55.660Z,5.60
2018-09-09T00:04:55.680Z,5.30
2018-09-09T00:05:55.708Z,5.80
2018-09-09T00:06:55.717Z,5.60
2018-09-09T00:07:55.737Z,5.60
2018-09-09T00:08:55.753Z,5.60
2018-09-09T00:09:55.775Z,5.90
2018-09-09T00:10:55.791Z,5.60
2018-09-09T00:11:55.818Z,6.20
2018-09-09T00:12:55.830Z,5.80
2018-09-09T00:13:55.855Z,6.10
2018-09-09T00:14:55.877Z,6.10
2018-09-09T00:15:55.888Z,5.80
2018-09-09T00:16:55.910Z,6.50
2018-09-09T00:17:55.922Z,6.10
2018-09-09T00:18:55.956Z,6.00
2018-09-09T00:19:55.958Z,5.90
2018-09-09T00:20:55.982Z,5.80
2018-09-09T00:21:56.003Z,6.00
2018-09-09T00:22:56.020Z,6.00
2018-09-09T00:23:56.036Z,6.00
2018-09-09T00:24:56.057Z,5.90
2018-09-09T00:25:56.076Z,5.60
2018-09-09T00:26:56.094Z,5.90
2018-09-09T00:27:56.108Z,6.00
2018-09-09T00:28:56.133Z,5.90
2018-09-09T00:29:56.159Z,6.00
2018-09-09T00:30:56.170Z,5.50
2018-09-09T00:31:56.190Z,6.00
2018-09-09T00:32:56.214Z,5.80
2018-09-09T00:33:56.224Z,6.20
2018-09-09T00:34:56.243Z,5.60
2018-09-09T00:35:56.262Z,6.00
2018-09-09T00:36:56.281Z,6.10
2018-09-09T00:37:56.298Z,6.00
2018-09-09T00:38:56.317Z,5.40
2018-09-09T00:39:56.337Z,5.60
2018-09-09T00:40:56.356Z,5.60
2018-09-09T00:41:56.372Z,5.30
2018-09-09T00:42:56.396Z,5.70
2018-09-09T00:43:56.410Z,5.80
2018-09-09T00:44:56.433Z,5.50
2018-09-09T00:45:56.450Z,5.50
2018-09-09T00:46:56.475Z,5.30
2018-09-09T00:47:56.495Z,5.70
2018-09-09T00:48:56.509Z,5.10
2018-09-09T00:49:56.523Z,5.10
2018-09-09T00:50:56.544Z,5.20
2018-09-09T00:51:56.562Z,4.80
2018-09-09T00:52:56.582Z,5.40
2018-09-09T00:53:56.602Z,4.80
2018-09-09T00:54:56.620Z,5.20
2018-09-09T00:55:56.646Z,5.50
2018-09-09T00:56:56.656Z,5.10
2018-09-09T00:57:56.675Z,4.80
2018-09-09T00:58:56.706Z,5.10
2018-09-09T00:59:56.714Z,5.10
2018-09-09T01:00:56.736Z,4.90
2018-09-09T01:01:56.752Z,4.90
2018-09-09T01:02:56.785Z,5.50
2018-09-09T01:03:56.796Z,4.60
2018-09-09T01:04:56.808Z,4.60
2018-09-09T01:05:56.824Z,4.60
2018-09-09T01:06:56.851Z,4.60
2018-09-09T01:07:56.867Z,4.70
2018-09-09T01:08:56.884Z,4.60
2018-09-09T01:09:56.901Z,4.70
2018-09-09T01:10:56.927Z,4.20
2018-09-09T01:11:56.937Z,4.40
2018-09-09T01:12:56.959Z,4.70
2018-09-09T01:13:56.979Z,4.70
2018-09-09T01:14:56.995Z,4.80
2018-09-09T01:15:57.013Z,4.80
2018-09-09T01:16:57.035Z,4.70
2018-09-09T01:17:57.054Z,5.00
2018-09-09T01:18:57.071Z,4.80
2018-09-09T01:19:57.090Z,4.40
2018-09-09T01:20:57.112Z,4.80
2018-09-09T01:21:57.127Z,4.30
2018-09-09T01:22:57.152Z,4.30
2018-09-09T01:23:57.161Z,4.40
2018-09-09T01:24:57.180Z,4.30
2018-09-09T01:25:57.199Z,4.60
2018-09-09T01:26:57.225Z,4.20
2018-09-09T01:27:57.242Z,4.30
2018-09-09T01:28:57.262Z,4.80
2018-09-09T01:29:57.278Z,4.40
2018-09-09T01:30:57.305Z,4.40
2018-09-09T01:31:57.313Z,4.40
2018-09-09T01:32:57.332Z,4.00
2018-09-09T01:33:57.356Z,4.30
2018-09-09T01:34:57.377Z,4.50
2018-09-09T01:35:57.400Z,5.20
2018-09-09T01:36:57.414Z,4.50
2018-09-09T01:37:57.428Z,4.80
2018-09-09T01:38:57.448Z,4.60
2018-09-09T01:39:57.470Z,4.70
2018-09-09T01:40:57.497Z,4.80
2018-09-09T01:41:57.509Z,4.70
2018-09-09T01:42:57.524Z,4.50
2018-09-09T01:43:57.544Z,4.60
2018-09-09T01:44:57.561Z,4.60
2018-09-09T01:45:57.589Z,4.50
2018-09-09T01:46:57.602Z,4.50
2018-09-09T01:47:57.623Z,4.40
2018-09-09T01:48:57.647Z,4.30
2018-09-09T01:49:57.659Z,4.80
2018-09-09T01:50:57.675Z,4.60
2018-09-09T01:51:57.697Z,4.20
2018-09-09T01:52:57.715Z,4.50
2018-09-09T01:53:57.734Z,4.10
2018-09-09T01:54:57.748Z,4.30
2018-09-09T01:55:57.774Z,4.30
2018-09-09T01:56:57.786Z,4.20
2018-09-09T01:57:57.806Z,4.50
2018-09-09T01:58:57.829Z,4.20
2018-09-09T01:59:57.845Z,4.50
2018-09-09T02:00:57.861Z,4.50
2018-09-09T02:01:57.885Z,4.60
2018-09-09T02:02:57.903Z,4.50
2018-09-09T02:03:57.918Z,4.20
2018-09-09T02:04:57.940Z,4.30
2018-09-09T02:05:57.959Z,4.50
2018-09-09T02:06:57.976Z,4.30
2018-09-09T02:07:57.995Z,4.20
2018-09-09T02:08:58.011Z,4.40
2018-09-09T02:09:58.033Z,4.10
2018-09-09T02:10:58.051Z,4.30
2018-09-09T02:11:58.072Z,3.90
2018-09-09T02:12:58.111Z,4.20
2018-09-09T02:13:58.106Z,4.20
2018-09-09T02:14:58.127Z,4.30
2018-09-09T02:15:58.145Z,4.50
2018-09-09T02:16:58.160Z,4.00
2018-09-09T02:17:58.183Z,4.40
2018-09-09T02:18:58.201Z,4.20
2018-09-09T02:19:58.220Z,4.60
2018-09-09T02:20:58.236Z,4.10
2018-09-09T02:21:58.260Z,4.20
2018-09-09T02:22:58.274Z,4.30
2018-09-09T02:23:58.291Z,4.20
2018-09-09T02:24:58.316Z,4.60
2018-09-09T02:25:58.364Z,4.10
2018-09-09T02:26:58.354Z,4.40
2018-09-09T02:27:58.371Z,4.00
2018-09-09T02:28:58.387Z,4.30
2018-09-09T02:29:58.404Z,4.20
2018-09-09T02:30:58.426Z,4.20
2018-09-09T02:31:58.508Z,4.30
2018-09-09T02:32:58.465Z,4.60
2018-09-09T02:33:58.487Z,4.00
2018-09-09T02:34:58.508Z,4.60
2018-09-09T02:35:58.519Z,4.30
2018-09-09T02:36:58.543Z,4.40
2018-09-09T02:37:58.571Z,4.50
2018-09-09T02:38:58.573Z,4.10
2018-09-09T02:39:58.595Z,4.40
2018-09-09T02:40:58.614Z,4.70
2018-09-09T02:41:58.631Z,4.40
2018-09-09T02:42:58.653Z,4.70
2018-09-09T02:43:58.675Z,4.00
2018-09-09T02:44:58.688Z,4.60
2018-09-09T02:45:58.711Z,4.20
2018-09-09T02:46:58.731Z,4.30
2018-09-09T02:47:58.750Z,4.20
2018-09-09T02:48:58.766Z,4.40
2018-09-09T02:49:58.783Z,4.50
2018-09-09T02:50:58.801Z,4.00
2018-09-09T02:51:58.821Z,4.30
2018-09-09T02:52:58.838Z,4.40
2018-09-09T02:53:58.858Z,4.40
2018-09-09T02:54:58.883Z,4.30
2018-09-09T02:55:58.892Z,4.50
2018-09-09T02:56:58.911Z,4.30
2018-09-09T02:57:58.930Z,4.20
2018-09-09T02:58:58.952Z,4.40
2018-09-09T02:59:58.968Z,4.50
2018-09-09T03:00:58.986Z,4.60
2018-09-09T03:01:59.003Z,4.50
2018-09-09T03:02:59.031Z,4.20
2018-09-09T03:03:59.045Z,4.10
2018-09-09T03:04:59.065Z,4.20
2018-09-09T03:05:59.092Z,4.20
2018-09-09T03:06:59.104Z,4.50
2018-09-09T03:07:59.118Z,4.40
2018-09-09T03:38:14.886Z,3.70
2018-09-09T03:39:14.873Z,4.40
2018-09-09T03:41:06.784Z,4.30
2018-09-09T03:42:06.788Z,4.30
2018-09-09T03:43:58.712Z,4.70
2018-09-09T03:44:58.705Z,4.70
2018-09-09T03:46:50.643Z,5.00
2018-09-09T03:47:50.625Z,4.50
2018-09-09T03:49:42.531Z,4.80
2018-09-09T03:50:42.541Z,4.90
2018-09-09T03:52:34.476Z,5.00
2018-09-09T03:53:34.462Z,5.30
2018-09-09T03:55:26.383Z,4.90
2018-09-09T03:56:26.391Z,4.90
2018-09-09T03:58:18.322Z,5.00
2018-09-09T03:59:18.321Z,4.90
2018-09-09T04:01:10.231Z,4.40
2018-09-09T04:02:10.251Z,4.50
2018-09-09T04:04:02.179Z,4.30
2018-09-09T04:05:02.170Z,4.40
2018-09-09T04:06:54.114Z,4.40
2018-09-09T04:07:54.102Z,4.30
2018-09-09T04:09:46.042Z,4.40
2018-09-09T04:10:46.030Z,4.60
2018-09-09T04:12:37.971Z,4.40
2018-09-09T04:13:37.957Z,4.40
2018-09-09T04:15:29.879Z,4.70
2018-09-09T04:16:29.887Z,4.80
2018-09-09T04:18:21.824Z,4.90
2018-09-09T04:19:21.810Z,4.30
2018-09-09T04:21:13.727Z,4.50
2018-09-09T04:22:13.739Z,4.40
2018-09-09T04:24:05.676Z,4.40
2018-09-09T04:25:05.663Z,4.50
2018-09-09T04:26:57.589Z,4.40
2018-09-09T04:27:57.592Z,4.20
2018-09-09T04:29:49.542Z,4.00
2018-09-09T04:30:49.596Z,4.10
2018-09-09T04:32:41.464Z,4.40
2018-09-09T04:33:41.454Z,4.20
2018-09-09T04:35:33.371Z,4.20
2018-09-09T04:36:33.386Z,4.60
2018-09-09T04:38:25.328Z,4.10
2018-09-09T04:39:25.325Z,3.80
2018-09-09T04:41:17.236Z,4.00
2018-09-09T04:42:17.250Z,4.10
2018-09-09T04:44:09.187Z,3.90
2018-09-09T04:45:09.174Z,3.70
2018-09-09T04:47:01.102Z,4.30
2018-09-09T04:48:01.107Z,4.10
2018-09-09T04:49:53.048Z,4.10
2018-09-09T04:50:53.045Z,4.10
2018-09-09T04:52:44.978Z,4.00
2018-09-09T04:53:44.967Z,4.10
2018-09-09T04:55:36.891Z,4.00
2018-09-09T04:56:36.899Z,3.80
2018-09-09T04:58:28.835Z,3.70
2018-09-09T04:59:28.827Z,3.80
2018-09-09T05:01:20.794Z,3.80
2018-09-09T05:02:20.765Z,4.10
2018-09-09T05:04:12.704Z,3.80
2018-09-09T05:05:12.692Z,3.40
2018-09-09T05:07:04.614Z,4.00
2018-09-09T05:08:04.627Z,4.00
2018-09-09T05:09:56.561Z,4.00
2018-09-09T05:10:56.554Z,3.70
2018-09-09T05:12:48.501Z,3.50
2018-09-09T05:13:48.483Z,3.70
2018-09-09T05:15:40.403Z,4.10
2018-09-09T05:16:40.414Z,3.40
2018-09-09T05:18:32.345Z,3.70
2018-09-09T05:19:32.341Z,3.90
2018-09-09T05:21:24.271Z,3.80
2018-09-09T05:22:24.279Z,3.90
2018-09-09T05:24:16.208Z,3.70
2018-09-09T05:25:16.204Z,3.40
2018-09-09T05:27:08.629Z,3.50
2018-09-09T05:28:08.643Z,3.90
2018-09-09T05:30:00.595Z,3.60
2018-09-09T05:31:00.569Z,3.20
2018-09-09T05:32:52.513Z,3.80
2018-09-09T05:33:52.504Z,3.90
2018-09-09T05:35:44.416Z,3.40
2018-09-09T05:36:44.433Z,3.40
2018-09-09T05:38:36.388Z,3.60
2018-09-09T05:39:36.373Z,3.50
2018-09-09T05:41:28.288Z,3.90
2018-09-09T05:42:28.332Z,3.40
2018-09-09T05:44:20.238Z,3.70
2018-09-09T05:45:20.228Z,3.20
2018-09-09T05:47:12.147Z,3.30
2018-09-09T05:48:12.164Z,3.10
2018-09-09T05:50:04.103Z,3.50
2018-09-09T05:51:04.093Z,3.40
2018-09-09T05:52:56.046Z,3.50
2018-09-09T05:53:56.082Z,3.20
2018-09-09T05:55:47.941Z,2.90
2018-09-09T05:56:47.955Z,3.10
2018-09-09T05:58:39.888Z,3.20
2018-09-09T05:59:39.886Z,3.40
2018-09-09T06:01:31.844Z,3.10
2018-09-09T06:02:31.813Z,3.30
2018-09-09T06:04:23.767Z,3.00
2018-09-09T06:05:23.749Z,3.10
2018-09-09T06:07:15.660Z,3.40
2018-09-09T06:08:15.679Z,3.50
2018-09-09T06:10:07.616Z,3.10
2018-09-09T06:11:07.603Z,3.30
2018-09-09T06:12:59.526Z,3.20
2018-09-09T06:13:59.538Z,2.80
2018-09-09T06:15:51.475Z,3.20
2018-09-09T06:16:51.467Z,3.00
2018-09-09T06:18:43.410Z,3.10
2018-09-09T06:19:43.399Z,3.00
2018-09-09T06:21:35.821Z,2.80
2018-09-09T06:22:35.829Z,3.00
2018-09-09T06:24:27.761Z,2.90
2018-09-09T06:25:27.764Z,3.10
2018-09-09T06:27:19.671Z,2.80
2018-09-09T06:28:19.744Z,3.00
2018-09-09T06:30:11.624Z,2.90
2018-09-09T06:31:11.621Z,2.80
2018-09-09T06:33:03.540Z,3.00
2018-09-09T06:34:03.601Z,3.00
2018-09-09T06:35:55.496Z,2.80
2018-09-09T06:36:55.490Z,3.00
2018-09-09T06:38:47.428Z,2.90
2018-09-09T06:39:47.421Z,3.30
2018-09-09T06:41:39.353Z,3.00
2018-09-09T06:42:39.360Z,2.90
2018-09-09T06:44:31.291Z,3.10
2018-09-09T06:45:31.288Z,2.80
2018-09-09T06:47:23.310Z,2.70
2018-09-09T06:48:23.239Z,2.90
2018-09-09T06:50:15.179Z,3.20
2018-09-09T06:51:15.225Z,3.00
2018-09-09T06:53:07.086Z,3.10
2018-09-09T06:54:07.095Z,3.00
2018-09-09T06:55:59.037Z,2.80
2018-09-09T06:56:59.030Z,2.80
2018-09-09T06:58:50.973Z,2.80
2018-09-09T06:59:50.965Z,2.60
2018-09-09T07:01:42.887Z,2.80
2018-09-09T07:02:42.896Z,2.90
2018-09-09T07:04:34.840Z,2.80
2018-09-09T07:05:34.831Z,2.70
2018-09-09T07:07:26.753Z,2.70
2018-09-09T07:08:26.768Z,2.70
2018-09-09T07:10:18.715Z,3.00
2018-09-09T07:11:18.846Z,2.80
2018-09-09T07:13:10.630Z,2.70
2018-09-09T07:14:10.644Z,2.70
2018-09-09T07:16:02.592Z,3.20
2018-09-09T07:17:02.605Z,3.00
2018-09-09T07:18:54.514Z,3.00
2018-09-09T07:19:54.510Z,2.60
2018-09-09T07:21:46.430Z,2.60
2018-09-09T07:22:46.525Z,2.80
2018-09-09T07:24:38.381Z,2.50
2018-09-09T07:25:38.377Z,2.60
2018-09-09T07:27:30.303Z,3.30
2018-09-09T07:28:30.337Z,2.70
2018-09-09T07:30:22.263Z,2.70
2018-09-09T07:31:22.253Z,2.80
2018-09-09T07:33:14.187Z,2.90
2018-09-09T07:34:14.240Z,2.60
2018-09-09T07:36:06.138Z,2.70
2018-09-09T07:37:06.131Z,2.70
2018-09-09T07:38:58.074Z,2.80
2018-09-09T07:39:58.063Z,2.80
2018-09-09T07:41:49.987Z,2.50
2018-09-09T07:42:50.010Z,2.50
2018-09-09T07:44:41.952Z,2.70
2018-09-09T07:45:41.943Z,2.70
2018-09-09T07:47:33.867Z,2.40
2018-09-09T07:48:33.881Z,2.40
2018-09-09T07:50:25.830Z,2.60
2018-09-09T07:51:25.825Z,2.60
2018-09-09T07:53:17.759Z,2.70
2018-09-09T07:54:17.780Z,2.50
2018-09-09T07:56:09.721Z,2.50
2018-09-09T07:57:09.717Z,2.60
2018-09-09T07:59:01.640Z,2.70
2018-09-09T08:00:01.662Z,2.70
2018-09-09T08:01:53.593Z,2.80
2018-09-09T08:02:53.592Z,2.80
2018-09-09T08:04:45.529Z,2.70
2018-09-09T08:05:45.527Z,2.60
2018-09-09T08:07:37.455Z,2.50
2018-09-09T08:08:37.463Z,2.50
2018-09-09T08:10:29.404Z,2.40
2018-09-09T08:11:29.395Z,2.10
2018-09-09T08:13:21.327Z,2.50
2018-09-09T08:14:21.346Z,2.40
2018-09-09T08:16:13.277Z,2.40
2018-09-09T08:17:13.272Z,2.40
2018-09-09T08:19:05.199Z,2.30
2018-09-09T08:20:05.215Z,2.30
2018-09-09T08:21:57.155Z,2.50
2018-09-09T08:22:57.153Z,2.20
2018-09-09T08:24:49.099Z,2.10
2018-09-09T08:25:49.095Z,2.30
2018-09-09T08:27:41.011Z,2.40
2018-09-09T08:28:41.031Z,2.20
2018-09-09T08:30:32.982Z,2.10
2018-09-09T08:31:32.967Z,2.10
2018-09-09T08:33:24.891Z,2.30
2018-09-09T08:34:24.912Z,2.20
2018-09-09T08:36:16.856Z,2.10
2018-09-09T08:37:16.851Z,2.10
2018-09-09T08:39:08.773Z,2.20
2018-09-09T08:40:08.786Z,2.30
2018-09-09T08:42:00.729Z,2.40
2018-09-09T08:43:00.731Z,2.20
2018-09-09T08:44:52.683Z,2.40
2018-09-09T08:45:52.680Z,2.30
2018-09-09T08:47:44.605Z,2.20
2018-09-09T08:48:44.626Z,2.50
2018-09-09T08:50:36.565Z,2.10
2018-09-09T08:51:36.559Z,2.30
2018-09-09T08:53:28.483Z,2.10
2018-09-09T08:54:28.503Z,2.20
2018-09-09T08:56:20.445Z,2.30
2018-09-09T08:57:20.446Z,2.20
2018-09-09T08:59:12.367Z,2.30
2018-09-09T09:00:12.380Z,2.20
2018-09-09T09:02:04.330Z,2.20
2018-09-09T09:03:04.326Z,2.20
2018-09-09T09:04:56.279Z,2.10
2018-09-09T09:05:56.271Z,2.10
2018-09-09T09:07:48.297Z,2.30
2018-09-09T09:08:48.231Z,2.10
2018-09-09T09:10:40.172Z,2.10
2018-09-09T09:11:40.173Z,2.10
2018-09-09T09:13:32.102Z,2.00
2018-09-09T09:14:32.117Z,2.20
2018-09-09T09:16:24.067Z,1.90
2018-09-09T09:17:24.059Z,2.10
2018-09-09T09:19:15.984Z,1.90
2018-09-09T09:20:16.007Z,2.00
2018-09-09T09:22:07.950Z,2.10
2018-09-09T09:23:07.950Z,2.00
2018-09-09T09:24:59.891Z,1.90
2018-09-09T09:25:59.888Z,2.00
2018-09-09T09:27:51.813Z,2.10
2018-09-09T09:28:51.831Z,1.90
2018-09-09T09:30:43.798Z,2.00
2018-09-09T09:31:43.779Z,2.40
2018-09-09T09:33:35.705Z,2.00
2018-09-09T09:34:35.717Z,1.90
2018-09-09T09:36:27.667Z,1.90
2018-09-09T09:37:27.664Z,2.00
2018-09-09T09:39:19.620Z,2.10
2018-09-09T09:40:19.603Z,2.00
2018-09-09T09:42:11.549Z,1.90
2018-09-09T09:43:11.546Z,1.80
2018-09-09T09:45:03.506Z,2.10
2018-09-09T09:46:03.493Z,1.90
2018-09-09T09:47:55.420Z,2.00
2018-09-09T09:48:55.483Z,2.00
2018-09-09T09:50:47.383Z,2.00
2018-09-09T09:51:47.377Z,1.80
2018-09-09T09:53:39.366Z,2.10
2018-09-09T09:54:39.320Z,1.70
2018-09-09T09:56:31.273Z,1.70
2018-09-09T09:57:31.268Z,1.80
2018-09-09T09:59:23.192Z,1.80
2018-09-09T10:00:23.210Z,1.70
2018-09-09T10:02:15.156Z,1.70
2018-09-09T10:03:15.154Z,1.70
2018-09-09T10:05:07.086Z,1.80
2018-09-09T10:06:07.104Z,1.80
2018-09-09T10:07:59.050Z,1.80
2018-09-09T10:08:59.052Z,1.70
2018-09-09T10:10:50.995Z,1.70
2018-09-09T10:11:50.988Z,1.50
2018-09-09T10:13:42.925Z,1.50
2018-09-09T10:14:42.926Z,1.50
2018-09-09T10:16:34.883Z,1.50
2018-09-09T10:17:34.873Z,1.50
2018-09-09T10:19:26.799Z,1.50
2018-09-09T10:20:26.818Z,1.40
2018-09-09T10:22:18.759Z,1.30
2018-09-09T10:23:18.757Z,1.70
2018-09-09T10:25:10.713Z,1.60
2018-09-09T10:26:10.709Z,1.50
2018-09-09T10:27:10.731Z,1.60
2018-09-09T10:28:10.750Z,1.60
2018-09-09T10:29:10.779Z,1.60
2018-09-09T10:30:10.833Z,1.60
2018-09-09T10:31:10.822Z,1.60
2018-09-09T10:32:10.844Z,1.40
2018-09-09T10:33:10.869Z,1.30
2018-09-09T10:34:10.894Z,1.60
2018-09-09T10:35:10.920Z,1.70
2018-09-09T10:36:10.934Z,1.60
2018-09-09T10:37:10.959Z,1.60
2018-09-09T10:38:10.985Z,1.50
2018-09-09T10:39:11.005Z,1.50
2018-09-09T10:40:11.033Z,1.50
2018-09-09T10:41:11.052Z,1.60
2018-09-09T10:42:11.075Z,1.60
2018-09-09T10:43:11.103Z,1.50
2018-09-09T10:44:11.124Z,1.30
2018-09-09T10:45:11.147Z,1.50
2018-09-09T10:46:11.184Z,1.60
2018-09-09T10:47:11.281Z,1.40
2018-09-09T10:48:11.216Z,1.50
2018-09-09T10:49:11.249Z,1.80
2018-09-09T10:50:11.269Z,1.40
2018-09-09T10:51:11.292Z,1.80
2018-09-09T10:52:11.312Z,1.50
2018-09-09T10:53:11.352Z,1.30
2018-09-09T10:54:11.355Z,1.70
2018-09-09T10:55:11.380Z,1.60
2018-09-09T10:56:11.400Z,1.50
2018-09-09T10:57:11.429Z,1.50
2018-09-09T10:58:11.452Z,1.40
2018-09-09T10:59:11.471Z,1.60
2018-09-09T11:00:11.501Z,1.60
2018-09-09T11:01:11.521Z,1.50
2018-09-09T11:02:11.546Z,1.60
2018-09-09T11:03:11.568Z,1.50
2018-09-09T11:04:11.597Z,1.80
2018-09-09T11:05:11.613Z,1.90
2018-09-09T11:06:11.637Z,1.90
2018-09-09T11:07:11.661Z,1.60
2018-09-09T11:08:11.685Z,1.80
2018-09-09T11:09:11.709Z,1.60
2018-09-09T11:10:11.735Z,1.80
2018-09-09T11:11:11.754Z,1.80
2018-09-09T11:12:11.778Z,1.90
2018-09-09T11:13:11.799Z,1.70
2018-09-09T11:14:11.823Z,1.80
2018-09-09T11:15:11.856Z,1.80
2018-09-09T11:16:11.876Z,1.80
2018-09-09T11:17:11.899Z,1.80
2018-09-09T11:18:11.921Z,1.70
2018-09-09T11:19:11.945Z,1.60
2018-09-09T11:20:11.970Z,1.90
2018-09-09T11:21:11.995Z,1.80
2018-09-09T11:22:12.014Z,1.50
2018-09-09T11:23:12.038Z,1.70
2018-09-09T11:24:12.071Z,1.70
2018-09-09T11:25:12.082Z,1.80
2018-09-09T11:26:12.104Z,1.70
2018-09-09T11:27:12.131Z,1.60
2018-09-09T11:28:12.162Z,1.60
2018-09-09T11:29:12.176Z,1.70
2018-09-09T11:30:12.202Z,1.60
2018-09-09T11:31:12.229Z,1.40
2018-09-09T11:32:12.257Z,1.60
2018-09-09T11:33:12.274Z,1.80
2018-09-09T11:34:12.298Z,1.50
2018-09-09T11:35:12.322Z,1.40
2018-09-09T11:36:12.353Z,1.50
2018-09-09T11:37:12.368Z,1.70
2018-09-09T11:38:12.397Z,1.50
2018-09-09T11:39:12.415Z,1.70
2018-09-09T11:40:12.440Z,1.50
2018-09-09T11:41:12.466Z,1.60
2018-09-09T11:42:12.491Z,1.70
2018-09-09T11:43:12.510Z,1.70
2018-09-09T11:44:12.542Z,1.60
2018-09-09T11:45:12.562Z,1.40
2018-09-09T11:46:12.589Z,1.80
2018-09-09T11:47:12.612Z,1.60
2018-09-09T11:48:12.631Z,1.30
2018-09-09T11:49:12.656Z,1.50
2018-09-09T11:50:12.679Z,1.60
2018-09-09T11:51:12.706Z,1.50
2018-09-09T11:52:12.732Z,1.60
2018-09-09T11:53:12.780Z,1.50
2018-09-09T11:54:12.775Z,1.60
2018-09-09T11:55:12.800Z,1.40
2018-09-09T11:56:12.824Z,1.60
2018-09-09T11:57:12.847Z,1.40
2018-09-09T11:58:12.872Z,2.00
2018-09-09T11:59:12.899Z,1.70
2018-09-09T12:00:12.921Z,1.60
2018-09-09T12:01:12.944Z,1.40
2018-09-09T12:02:12.972Z,1.60
2018-09-09T12:03:12.991Z,1.80
2018-09-09T12:04:13.021Z,1.70
2018-09-09T12:05:13.041Z,1.50
2018-09-09T12:06:13.063Z,1.70
2018-09-09T12:07:13.090Z,1.70
2018-09-09T12:08:13.112Z,1.50
2018-09-09T12:09:13.139Z,1.80
2018-09-09T12:10:13.166Z,1.70
2018-09-09T12:11:13.186Z,2.00
2018-09-09T12:12:13.208Z,1.70
2018-09-09T12:13:13.235Z,1.80
2018-09-09T12:14:13.262Z,1.70
2018-09-09T12:15:13.284Z,1.80
2018-09-09T12:16:13.304Z,1.70
2018-09-09T12:17:13.334Z,1.60
2018-09-09T12:18:13.356Z,1.50
2018-09-09T12:19:13.380Z,1.50
2018-09-09T12:20:13.404Z,1.50
2018-09-09T12:21:13.423Z,1.30
2018-09-09T12:22:13.449Z,1.70
2018-09-09T12:23:13.473Z,1.70
2018-09-09T12:24:13.500Z,1.60
2018-09-09T12:25:13.520Z,1.60
2018-09-09T12:26:13.546Z,1.40
2018-09-09T12:27:13.570Z,1.50
2018-09-09T12:28:13.596Z,1.50
2018-09-09T12:29:13.621Z,1.70
2018-09-09T12:30:13.642Z,1.40
2018-09-09T12:31:13.664Z,2.00
2018-09-09T12:32:13.800Z,1.40
2018-09-09T12:33:13.725Z,1.60
2018-09-09T12:34:13.744Z,1.60
2018-09-09T12:35:13.768Z,1.50
2018-09-09T12:36:13.788Z,1.70
2018-09-09T12:37:13.811Z,1.20
2018-09-09T12:38:13.843Z,1.60
2018-09-09T12:39:13.862Z,1.40
2018-09-09T12:40:13.894Z,1.30
2018-09-09T12:41:13.910Z,1.40
2018-09-09T12:42:13.935Z,1.30
2018-09-09T12:43:13.959Z,1.50
2018-09-09T12:44:13.983Z,1.40
2018-09-09T12:45:14.006Z,1.30
2018-09-09T12:46:14.037Z,1.50
2018-09-09T12:47:14.087Z,1.30
2018-09-09T12:48:14.084Z,1.30
2018-09-09T12:49:14.106Z,1.30
2018-09-09T12:50:14.129Z,1.30
2018-09-09T12:51:14.154Z,1.30
2018-09-09T12:52:14.177Z,1.40
2018-09-09T12:53:14.201Z,1.40
2018-09-09T12:54:14.226Z,1.30
2018-09-09T12:55:14.253Z,1.50
2018-09-09T12:56:14.281Z,1.20
2018-09-09T12:57:14.302Z,1.50
2018-09-09T12:58:14.328Z,1.40
2018-09-09T12:59:14.349Z,1.30
2018-09-09T13:00:14.388Z,1.50
2018-09-09T13:01:14.396Z,1.50
2018-09-09T13:02:14.425Z,1.40
2018-09-09T13:03:14.444Z,1.50
2018-09-09T13:04:14.469Z,1.40
2018-09-09T13:05:14.494Z,1.70
2018-09-09T13:06:14.520Z,1.20
2018-09-09T13:07:14.546Z,1.30
2018-09-09T13:08:14.567Z,1.40
2018-09-09T13:09:14.590Z,1.40
2018-09-09T13:10:14.615Z,1.50
2018-09-09T13:11:14.642Z,1.40
2018-09-09T13:12:14.661Z,1.40
2018-09-09T13:13:14.684Z,1.50
2018-09-09T13:14:14.712Z,1.50
2018-09-09T13:15:14.732Z,1.50
2018-09-09T13:16:14.758Z,1.20
2018-09-09T13:17:14.783Z,1.50
2018-09-09T13:18:14.806Z,1.30
2018-09-09T13:19:14.834Z,1.50
2018-09-09T13:20:14.852Z,1.60
2018-09-09T13:21:14.875Z,1.50
2018-09-09T13:22:14.905Z,1.40
2018-09-09T13:23:14.931Z,1.30
2018-09-09T13:24:14.950Z,1.40
2018-09-09T13:25:14.971Z,1.60
2018-09-09T13:26:15.001Z,1.70
2018-09-09T13:27:15.023Z,1.50
2018-09-09T13:28:15.050Z,1.40
2018-09-09T13:29:15.099Z,1.50
2018-09-09T13:30:15.091Z,1.50
2018-09-09T13:31:15.118Z,1.50
2018-09-09T13:32:15.139Z,1.40
2018-09-09T13:33:15.171Z,1.50
2018-09-09T13:34:15.188Z,1.30
2018-09-09T13:35:15.223Z,1.40
2018-09-09T13:36:15.241Z,1.30
2018-09-09T13:37:15.264Z,1.40
2018-09-09T13:38:15.294Z,1.70
2018-09-09T13:39:15.312Z,1.30
2018-09-09T13:40:15.335Z,1.40
2018-09-09T13:41:15.359Z,1.40
2018-09-09T13:42:15.383Z,1.30
2018-09-09T13:43:15.407Z,1.40
2018-09-09T13:44:15.435Z,1.70
2018-09-09T13:45:15.455Z,1.40
2018-09-09T13:46:15.484Z,1.40
2018-09-09T13:47:15.505Z,1.50
2018-09-09T13:48:15.602Z,1.50
2018-09-09T13:49:15.552Z,1.60
2018-09-09T13:50:15.576Z,1.50
2018-09-09T13:51:15.599Z,1.70
2018-09-09T13:52:15.625Z,1.50
2018-09-09T13:53:15.648Z,1.40
2018-09-09T13:54:15.675Z,1.40
2018-09-09T13:55:15.697Z,1.50
2018-09-09T13:56:15.724Z,1.40
2018-09-09T13:57:15.744Z,1.30
2018-09-09T13:58:15.808Z,1.50
2018-09-09T13:59:15.796Z,1.40
2018-09-09T14:00:15.821Z,1.40
2018-09-09T14:01:15.843Z,1.40
2018-09-09T14:02:15.865Z,1.70
2018-09-09T14:03:15.889Z,1.60
2018-09-09T14:04:15.916Z,1.50
2018-09-09T14:05:15.941Z,1.60
2018-09-09T14:06:15.963Z,1.50
2018-09-09T14:07:15.985Z,1.80
2018-09-09T14:08:16.014Z,1.80
2018-09-09T14:09:16.038Z,1.40
2018-09-09T14:10:16.061Z,1.50
2018-09-09T14:11:16.085Z,1.80
2018-09-09T14:12:16.113Z,1.50
2018-09-09T14:13:16.151Z,1.60
2018-09-09T14:14:16.152Z,1.70
2018-09-09T14:15:16.196Z,1.50
2018-09-09T14:16:16.211Z,1.60
2018-09-09T14:17:16.225Z,1.60
2018-09-09T14:18:16.255Z,1.60
2018-09-09T14:19:16.272Z,1.90
2018-09-09T14:20:16.301Z,1.40
2018-09-09T14:21:16.324Z,1.60
2018-09-09T14:22:16.435Z,1.60
2018-09-09T14:23:16.370Z,1.50
2018-09-09T14:24:16.398Z,1.40
2018-09-09T14:25:16.422Z,1.60
2018-09-09T14:26:16.449Z,1.50
2018-09-09T14:27:16.469Z,1.30
2018-09-09T14:28:16.497Z,1.50
2018-09-09T14:29:16.587Z,1.60
2018-09-09T14:30:16.548Z,2.00
2018-09-09T14:31:16.565Z,1.80
2018-09-09T14:32:16.590Z,1.40
2018-09-09T14:33:16.612Z,2.10
2018-09-09T14:34:16.692Z,1.50
2018-09-09T14:35:16.666Z,1.50
2018-09-09T14:36:16.688Z,1.60
2018-09-09T14:37:16.715Z,1.40
2018-09-09T14:38:16.734Z,1.70
2018-09-09T14:39:16.762Z,1.80
2018-09-09T14:40:16.817Z,1.50
2018-09-09T14:41:16.815Z,1.80
2018-09-09T14:42:16.834Z,1.60
2018-09-09T14:43:16.856Z,1.80
2018-09-09T14:44:16.882Z,1.70
2018-09-09T14:45:16.904Z,1.50
2018-09-09T14:46:16.931Z,1.40
2018-09-09T14:47:16.960Z,1.50
2018-09-09T14:48:16.981Z,1.90
2018-09-09T14:49:17.005Z,1.80
2018-09-09T14:50:17.030Z,2.90
2018-09-09T14:51:17.056Z,2.10
2018-09-09T14:52:17.077Z,3.30
2018-09-09T14:53:17.285Z,1.80
2018-09-09T14:54:17.128Z,1.40
2018-09-09T14:55:17.152Z,1.70
2018-09-09T14:56:17.176Z,2.60
2018-09-09T14:57:17.210Z,3.50
2018-09-09T14:58:17.226Z,2.90
2018-09-09T14:59:17.249Z,2.20
2018-09-09T15:00:17.293Z,1.70
2018-09-09T15:01:17.297Z,1.40
2018-09-09T15:02:17.323Z,1.70
2018-09-09T15:03:17.350Z,1.30
2018-09-09T15:04:17.371Z,3.50
2018-09-09T15:05:17.395Z,2.00
2018-09-09T15:06:17.418Z,2.40
2018-09-09T15:07:17.446Z,2.30
2018-09-09T15:08:17.501Z,1.70
2018-09-09T15:09:17.495Z,2.10
2018-09-09T15:10:17.521Z,1.50
2018-09-09T15:11:17.542Z,1.40
2018-09-09T15:12:17.568Z,1.50
2018-09-09T15:13:17.590Z,1.70
2018-09-09T15:14:17.613Z,2.20
2018-09-09T15:15:17.638Z,1.80
2018-09-09T15:16:17.663Z,1.50
2018-09-09T15:17:17.687Z,1.70
2018-09-09T15:18:17.716Z,1.50
2018-09-09T15:19:17.732Z,1.50
2018-09-09T15:20:17.764Z,1.40
2018-09-09T15:21:17.781Z,1.30
2018-09-09T15:22:17.812Z,1.30
2018-09-09T15:23:17.834Z,1.20
2018-09-09T15:24:17.854Z,1.10
2018-09-09T15:25:17.882Z,1.20
2018-09-09T15:26:17.907Z,1.40
2018-09-09T15:27:17.932Z,1.70
2018-09-09T15:28:17.967Z,1.50
2018-09-09T15:29:17.980Z,1.40
2018-09-09T15:30:17.998Z,1.50
2018-09-09T15:31:18.030Z,1.20
2018-09-09T15:32:18.052Z,2.00
2018-09-09T15:33:18.086Z,1.40
2018-09-09T15:34:18.131Z,1.30
2018-09-09T15:35:18.132Z,1.30
2018-09-09T15:36:18.143Z,1.20
2018-09-09T15:37:18.168Z,1.20
2018-09-09T15:38:18.204Z,1.30
2018-09-09T15:39:18.218Z,1.40
2018-09-09T15:40:18.280Z,1.20
2018-09-09T15:41:18.291Z,1.30
2018-09-09T15:42:18.304Z,1.10
2018-09-09T15:43:18.317Z,1.30
2018-09-09T15:44:18.336Z,1.30
2018-09-09T15:45:18.416Z,1.50
2018-09-09T15:46:18.386Z,1.70
2018-09-09T15:47:18.440Z,1.50
2018-09-09T15:48:18.440Z,1.60
2018-09-09T15:49:18.460Z,1.80
2018-09-09T15:50:18.482Z,1.60
2018-09-09T15:51:18.502Z,2.00